CT1AKV-10 Estrada Real PT current weather conditions

sailwx.info

Air temperature 30.6° C
Dewpoint -4.5° C

Last reported at 2014-Oct-25 15:45 UTC.
Time now 2014-Oct-25 16:47 UTC

Location: N 39°11' W 008°44'.
View on Google Maps.

See reports from other nearby stations

  
Tides and Currents Weather Stations Pressure Air Temp Water Temp Dewpoint Dewpoint Depression Visibility Wind Speed Wind Dir Waves Ship Positions
date/time (UTC)wind fromknots sea level pressurealtimeterstation pressurevisibilityair tempwater tempwave heightnotes
2014-Oct-25 15:45 30.6
2014-Oct-25 15:30 191 31.7
2014-Oct-25 15:15 145 31.7
2014-Oct-25 14:45 141 33.3
2014-Oct-25 14:30 32.8
2014-Oct-25 14:15 151 32.8
2014-Oct-25 14:00 129 33.3
2014-Oct-25 13:45 162 33.3
2014-Oct-25 13:00 153 32.8
2014-Oct-25 12:45 136 32.8
2014-Oct-25 12:30 120 0 gusting 4 32.2
2014-Oct-25 12:00 100 31.7
2014-Oct-25 11:45 125 31.7
2014-Oct-25 11:30 154 30.6
2014-Oct-25 11:15 107 29.4
2014-Oct-25 11:00 095 0 gusting 3 28.3
2014-Oct-25 10:45 061 0 gusting 3 27.8
2014-Oct-25 10:30 027 0 gusting 2 27.2
2014-Oct-25 10:00 055 0 gusting 3 26.1
2014-Oct-25 09:45 039 0 gusting 2 26.1
2014-Oct-25 09:30 057 25.6
2014-Oct-24 22:00 353 0 gusting 3 30.6
2014-Oct-24 21:30 353 0 gusting 3 30.6
2014-Oct-24 21:15 353 0 gusting 3 30.6
2014-Oct-24 21:00 353 0 gusting 3 30.6
2014-Oct-24 20:45 353 0 gusting 3 30.6
2014-Oct-24 20:30 353 0 gusting 3 30.6
2014-Oct-24 20:15 353 0 gusting 3 30.6
2014-Oct-24 19:45 353 0 gusting 3 30.6
2014-Oct-24 19:30 353 0 gusting 3 30.6
2014-Oct-24 19:00 353 0 gusting 3 30.6
2014-Oct-24 18:45 353 0 gusting 3 30.6
2014-Oct-24 18:30 353 0 gusting 3 30.6
2014-Oct-24 18:15 353 0 gusting 3 30.6
2014-Oct-24 18:00 353 0 gusting 3 30.6
2014-Oct-24 17:45 353 0 gusting 3 30.6
2014-Oct-24 17:30 353 0 gusting 3 30.6
2014-Oct-24 17:15 353 0 gusting 3 30.6
2014-Oct-24 17:00 353 0 gusting 3 30.6
2014-Oct-24 16:45 353 0 gusting 3 30.6
2014-Oct-24 16:30 353 0 gusting 3 30.6
2014-Oct-24 16:15 353 0 gusting 3 30.6
2014-Oct-24 16:00 353 0 gusting 3 30.6
2014-Oct-24 15:45 353 0 gusting 3 30.6
2014-Oct-24 15:30 353 0 gusting 3 30.6
2014-Oct-24 15:15 353 0 gusting 3 30.6
2014-Oct-24 15:00 353 0 gusting 3 30.6
2014-Oct-24 14:45 353 0 gusting 3 30.6
2014-Oct-24 14:15 353 0 gusting 3 30.6
2014-Oct-24 13:45 353 0 gusting 3 30.6
2014-Oct-24 13:30 353 0 gusting 3 30.6
2014-Oct-24 13:15 353 0 gusting 3 30.6
2014-Oct-24 13:00 353 0 gusting 3 30.6
2014-Oct-24 12:45 353 0 gusting 3 30.6
2014-Oct-24 12:30 349 0 gusting 3 30.6
2014-Oct-24 12:15 006 0 gusting 4 30.0
2014-Oct-24 12:00 043 0 gusting 3 30.0
2014-Oct-24 11:45 022 0 gusting 3 30.0
2014-Oct-24 11:30 015 0 gusting 4 29.4
2014-Oct-24 11:15 019 0 gusting 2 29.4
2014-Oct-23 22:00 17.8
2014-Oct-23 21:45 17.8
2014-Oct-23 21:00 18.9
2014-Oct-23 20:45 18.9
2014-Oct-23 20:30 19.4
2014-Oct-23 20:15 306 20.0
2014-Oct-23 20:00 288 20.0
2014-Oct-23 19:45 294 20.6
2014-Oct-23 19:15 20.6
2014-Oct-23 19:00 275 20.6
2014-Oct-23 18:45 20.6
2014-Oct-23 18:30 20.6
2014-Oct-23 18:15 20.6
2014-Oct-23 17:30 24.4
2014-Oct-23 17:15 035 25.6
2014-Oct-23 17:00 024 0 gusting 3 26.1
2014-Oct-23 16:45 008 0 gusting 3 26.7
2014-Oct-23 16:30 029 0 gusting 3 26.7
2014-Oct-23 16:15 045 0 gusting 6 27.2
2014-Oct-23 16:00 024 1 gusting 6 27.8